sensor_id;sensor_type;location;lat;lon;timestamp;pressure;altitude;pressure_sealevel;temperature;humidity
59859;BME280;45734;53.648;9.566;2024-01-16T00:04:10;55026.63;;;-145.06;100.00
59859;BME280;45734;53.648;9.566;2024-01-16T00:09:10;55008.41;;;-145.06;100.00
59859;BME280;45734;53.648;9.566;2024-01-16T00:14:10;55016.50;;;-145.06;100.00
59859;BME280;45734;53.648;9.566;2024-01-16T00:19:11;55006.38;;;-145.06;100.00
59859;BME280;45734;53.648;9.566;2024-01-16T00:24:13;55020.56;;;-145.06;100.00
59859;BME280;45734;53.648;9.566;2024-01-16T00:29:13;54998.28;;;-145.06;100.00
59859;BME280;45734;53.648;9.566;2024-01-16T00:34:13;54969.91;;;-145.06;100.00
59859;BME280;45734;53.648;9.566;2024-01-16T00:39:14;55006.38;;;-145.06;100.00
59859;BME280;45734;53.648;9.566;2024-01-16T00:44:14;55002.31;;;-145.06;100.00
59859;BME280;45734;53.648;9.566;2024-01-16T00:49:14;54990.19;;;-145.06;100.00
59859;BME280;45734;53.648;9.566;2024-01-16T00:54:15;54994.22;;;-145.06;100.00
59859;BME280;45734;53.648;9.566;2024-01-16T00:59:15;54994.22;;;-145.06;100.00
59859;BME280;45734;53.648;9.566;2024-01-16T01:04:15;54992.19;;;-145.06;100.00
59859;BME280;45734;53.648;9.566;2024-01-16T01:09:16;54998.28;;;-145.06;100.00
59859;BME280;45734;53.648;9.566;2024-01-16T01:14:17;54976.00;;;-145.06;100.00
59859;BME280;45734;53.648;9.566;2024-01-16T01:19:17;54998.28;;;-145.06;100.00
59859;BME280;45734;53.648;9.566;2024-01-16T01:24:18;54971.94;;;-145.06;100.00
59859;BME280;45734;53.648;9.566;2024-01-16T01:29:18;54973.97;;;-145.06;100.00
59859;BME280;45734;53.648;9.566;2024-01-16T01:34:18;55010.44;;;-145.06;100.00
59859;BME280;45734;53.648;9.566;2024-01-16T01:39:19;54986.13;;;-145.06;100.00
59859;BME280;45734;53.648;9.566;2024-01-16T01:44:19;54994.22;;;-145.06;100.00
59859;BME280;45734;53.648;9.566;2024-01-16T01:49:19;55006.38;;;-145.06;100.00
59859;BME280;45734;53.648;9.566;2024-01-16T01:54:21;54986.13;;;-145.06;100.00
59859;BME280;45734;53.648;9.566;2024-01-16T01:59:23;55008.41;;;-145.06;100.00
59859;BME280;45734;53.648;9.566;2024-01-16T02:04:24;55065.13;;;-145.06;100.00
59859;BME280;45734;53.648;9.566;2024-01-16T02:09:26;55042.84;;;-145.06;100.00
59859;BME280;45734;53.648;9.566;2024-01-16T02:14:26;55026.63;;;-145.06;100.00
59859;BME280;45734;53.648;9.566;2024-01-16T02:19:27;55046.91;;;-145.06;100.00
59859;BME280;45734;53.648;9.566;2024-01-16T02:24:27;55042.84;;;-145.06;100.00
59859;BME280;45734;53.648;9.566;2024-01-16T02:29:27;55050.94;;;-145.06;100.00
59859;BME280;45734;53.648;9.566;2024-01-16T02:34:28;55036.75;;;-145.06;100.00
59859;BME280;45734;53.648;9.566;2024-01-16T02:39:28;55055.00;;;-145.06;100.00
59859;BME280;45734;53.648;9.566;2024-01-16T02:44:28;55067.16;;;-145.06;100.00
59859;BME280;45734;53.648;9.566;2024-01-16T02:49:29;55077.28;;;-145.06;100.00
59859;BME280;45734;53.648;9.566;2024-01-16T02:54:31;55063.09;;;-145.06;100.00
59859;BME280;45734;53.648;9.566;2024-01-16T02:59:32;55115.78;;;-145.06;100.00
59859;BME280;45734;53.648;9.566;2024-01-16T03:04:32;55097.53;;;-145.06;100.00
59859;BME280;45734;53.648;9.566;2024-01-16T03:09:32;55115.78;;;-145.06;100.00
59859;BME280;45734;53.648;9.566;2024-01-16T03:14:33;55129.94;;;-145.06;100.00
59859;BME280;45734;53.648;9.566;2024-01-16T03:19:34;55115.78;;;-145.06;100.00
59859;BME280;45734;53.648;9.566;2024-01-16T03:24:34;55127.94;;;-145.06;100.00
59859;BME280;45734;53.648;9.566;2024-01-16T03:29:35;55099.56;;;-145.06;100.00
59859;BME280;45734;53.648;9.566;2024-01-16T03:34:36;55115.78;;;-145.06;100.00
59859;BME280;45734;53.648;9.566;2024-01-16T03:39:36;55121.84;;;-145.06;100.00
59859;BME280;45734;53.648;9.566;2024-01-16T03:44:39;55125.91;;;-145.06;100.00
59859;BME280;45734;53.648;9.566;2024-01-16T03:49:39;55111.72;;;-145.06;100.00
59859;BME280;45734;53.648;9.566;2024-01-16T03:54:39;55131.97;;;-145.06;100.00
59859;BME280;45734;53.648;9.566;2024-01-16T03:59:40;55166.41;;;-145.06;100.00
59859;BME280;45734;53.648;9.566;2024-01-16T04:04:40;55164.38;;;-145.06;100.00
59859;BME280;45734;53.648;9.566;2024-01-16T04:09:42;55162.38;;;-145.06;100.00
59859;BME280;45734;53.648;9.566;2024-01-16T04:14:43;55131.97;;;-145.06;100.00
59859;BME280;45734;53.648;9.566;2024-01-16T04:19:43;55160.34;;;-145.06;100.00
59859;BME280;45734;53.648;9.566;2024-01-16T04:24:43;55196.81;;;-145.06;100.00
59859;BME280;45734;53.648;9.566;2024-01-16T04:29:44;55196.81;;;-145.06;100.00
59859;BME280;45734;53.648;9.566;2024-01-16T04:34:45;55188.69;;;-145.06;100.00
59859;BME280;45734;53.648;9.566;2024-01-16T04:39:45;55219.09;;;-145.06;100.00
59859;BME280;45734;53.648;9.566;2024-01-16T04:44:45;55192.75;;;-145.06;100.00
59859;BME280;45734;53.648;9.566;2024-01-16T04:49:46;55168.44;;;-145.06;100.00
59859;BME280;45734;53.648;9.566;2024-01-16T04:54:46;55168.44;;;-145.06;100.00
59859;BME280;45734;53.648;9.566;2024-01-16T04:59:46;55184.66;;;-145.06;100.00
59859;BME280;45734;53.648;9.566;2024-01-16T05:04:46;55168.44;;;-145.06;100.00
59859;BME280;45734;53.648;9.566;2024-01-16T05:09:49;55194.78;;;-145.06;100.00
59859;BME280;45734;53.648;9.566;2024-01-16T05:14:49;55180.59;;;-145.06;100.00
59859;BME280;45734;53.648;9.566;2024-01-16T05:19:50;55225.16;;;-145.06;100.00
59859;BME280;45734;53.648;9.566;2024-01-16T05:24:50;55160.34;;;-145.06;100.00
59859;BME280;45734;53.648;9.566;2024-01-16T05:29:50;55174.53;;;-145.06;100.00
59859;BME280;45734;53.648;9.566;2024-01-16T05:34:51;55164.38;;;-145.06;100.00
59859;BME280;45734;53.648;9.566;2024-01-16T05:39:51;55196.81;;;-145.06;100.00
59859;BME280;45734;53.648;9.566;2024-01-16T05:44:51;55172.50;;;-145.06;100.00
59859;BME280;45734;53.648;9.566;2024-01-16T05:49:54;55178.56;;;-145.06;100.00
59859;BME280;45734;53.648;9.566;2024-01-16T05:54:54;55180.59;;;-145.06;100.00
59859;BME280;45734;53.648;9.566;2024-01-16T05:59:57;55213.00;;;-145.06;100.00
59859;BME280;45734;53.648;9.566;2024-01-16T06:04:58;55213.00;;;-145.06;100.00
59859;BME280;45734;53.648;9.566;2024-01-16T06:09:58;55229.22;;;-145.06;100.00
59859;BME280;45734;53.648;9.566;2024-01-16T06:14:58;55253.53;;;-145.06;100.00
59859;BME280;45734;53.648;9.566;2024-01-16T06:19:58;55227.19;;;-145.06;100.00
59859;BME280;45734;53.648;9.566;2024-01-16T06:24:59;55172.50;;;-145.06;100.00
59859;BME280;45734;53.648;9.566;2024-01-16T06:29:59;55210.97;;;-145.06;100.00
59859;BME280;45734;53.648;9.566;2024-01-16T06:34:59;55245.41;;;-145.06;100.00
59859;BME280;45734;53.648;9.566;2024-01-16T06:40:00;55273.78;;;-145.06;100.00
59859;BME280;45734;53.648;9.566;2024-01-16T06:45:00;55342.66;;;-145.06;100.00
59859;BME280;45734;53.648;9.566;2024-01-16T06:50:00;55314.31;;;-145.06;100.00
59859;BME280;45734;53.648;9.566;2024-01-16T06:55:01;55358.88;;;-145.06;100.00
59859;BME280;45734;53.648;9.566;2024-01-16T07:00:01;55356.84;;;-145.06;100.00
59859;BME280;45734;53.648;9.566;2024-01-16T07:05:02;55366.97;;;-145.06;100.00
59859;BME280;45734;53.648;9.566;2024-01-16T07:10:04;55371.03;;;-145.06;100.00
59859;BME280;45734;53.648;9.566;2024-01-16T07:15:13;55348.75;;;-145.06;100.00
59859;BME280;45734;53.648;9.566;2024-01-16T07:20:13;55326.47;;;-145.06;100.00
59859;BME280;45734;53.648;9.566;2024-01-16T07:25:14;55275.81;;;-145.06;100.00
59859;BME280;45734;53.648;9.566;2024-01-16T07:30:14;55241.38;;;-145.06;100.00
59859;BME280;45734;53.648;9.566;2024-01-16T07:35:15;55257.56;;;-145.06;100.00
59859;BME280;45734;53.648;9.566;2024-01-16T07:40:15;55253.53;;;-145.06;100.00
59859;BME280;45734;53.648;9.566;2024-01-16T07:45:17;55324.44;;;-145.06;100.00
59859;BME280;45734;53.648;9.566;2024-01-16T07:50:17;55328.47;;;-145.06;100.00
59859;BME280;45734;53.648;9.566;2024-01-16T07:55:18;55310.25;;;-145.06;100.00
59859;BME280;45734;53.648;9.566;2024-01-16T08:00:18;55271.75;;;-145.06;100.00
59859;BME280;45734;53.648;9.566;2024-01-16T08:05:18;55316.31;;;-145.06;100.00
59859;BME280;45734;53.648;9.566;2024-01-16T08:10:21;55287.97;;;-145.06;100.00
59859;BME280;45734;53.648;9.566;2024-01-16T08:15:22;55324.44;;;-145.06;100.00
59859;BME280;45734;53.648;9.566;2024-01-16T08:20:22;55334.56;;;-145.06;100.00
59859;BME280;45734;53.648;9.566;2024-01-16T08:25:23;55373.06;;;-145.06;100.00
59859;BME280;45734;53.648;9.566;2024-01-16T08:30:23;55360.91;;;-145.06;100.00
59859;BME280;45734;53.648;9.566;2024-01-16T08:35:23;55326.47;;;-145.06;100.00
59859;BME280;45734;53.648;9.566;2024-01-16T08:40:24;55196.81;;;-145.06;100.00
59859;BME280;45734;53.648;9.566;2024-01-16T08:45:24;55176.53;;;-145.06;100.00
59859;BME280;45734;53.648;9.566;2024-01-16T08:50:26;55095.50;;;-145.06;100.00
59859;BME280;45734;53.648;9.566;2024-01-16T08:55:26;55085.38;;;-145.06;100.00
59859;BME280;45734;53.648;9.566;2024-01-16T09:00:26;55071.19;;;-145.06;100.00
59859;BME280;45734;53.648;9.566;2024-01-16T09:05:27;55028.66;;;-145.06;100.00
59859;BME280;45734;53.648;9.566;2024-01-16T09:10:27;55024.59;;;-145.06;100.00
59859;BME280;45734;53.648;9.566;2024-01-16T09:15:28;55018.53;;;-145.06;100.00
59859;BME280;45734;53.648;9.566;2024-01-16T09:20:28;55038.78;;;-145.06;100.00
59859;BME280;45734;53.648;9.566;2024-01-16T09:25:28;55093.47;;;-145.06;100.00
59859;BME280;45734;53.648;9.566;2024-01-16T09:30:29;55059.03;;;-145.06;100.00
59859;BME280;45734;53.648;9.566;2024-01-16T09:35:30;54986.13;;;-145.06;100.00
59859;BME280;45734;53.648;9.566;2024-01-16T09:40:30;54947.63;;;-145.06;100.00
59859;BME280;45734;53.648;9.566;2024-01-16T09:45:31;54903.06;;;-145.06;100.00
59859;BME280;45734;53.648;9.566;2024-01-16T09:50:32;54844.31;;;-145.06;100.00
59859;BME280;45734;53.648;9.566;2024-01-16T09:55:32;54795.72;;;-145.06;100.00
59859;BME280;45734;53.648;9.566;2024-01-16T10:00:33;54787.59;;;-145.06;100.00
59859;BME280;45734;53.648;9.566;2024-01-16T10:05:34;54809.88;;;-145.06;100.00
59859;BME280;45734;53.648;9.566;2024-01-16T10:10:35;54832.16;;;-145.06;100.00
59859;BME280;45734;53.648;9.566;2024-01-16T10:15:36;54852.44;;;-145.06;100.00
59859;BME280;45734;53.648;9.566;2024-01-16T10:20:37;54840.28;;;-145.06;100.00
59859;BME280;45734;53.648;9.566;2024-01-16T10:25:37;54852.44;;;-145.06;100.00
59859;BME280;45734;53.648;9.566;2024-01-16T10:30:37;54815.97;;;-145.06;100.00
59859;BME280;45734;53.648;9.566;2024-01-16T10:35:38;54813.94;;;-145.06;100.00
59859;BME280;45734;53.648;9.566;2024-01-16T10:40:38;54769.38;;;-145.06;100.00
59859;BME280;45734;53.648;9.566;2024-01-16T10:45:39;54759.25;;;-145.06;100.00
59859;BME280;45734;53.648;9.566;2024-01-16T10:50:39;54736.97;;;-145.06;100.00
59859;BME280;45734;53.648;9.566;2024-01-16T10:55:49;54680.25;;;-145.06;100.00
59859;BME280;45734;53.648;9.566;2024-01-16T11:00:54;54660.00;;;-145.06;100.00
59859;BME280;45734;53.648;9.566;2024-01-16T11:05:57;54674.19;;;-145.06;100.00
59859;BME280;45734;53.648;9.566;2024-01-16T11:10:59;54674.19;;;-145.06;100.00
59859;BME280;45734;53.648;9.566;2024-01-16T11:16:02;54682.28;;;-145.06;100.00
59859;BME280;45734;53.648;9.566;2024-01-16T11:21:06;54678.22;;;-145.06;100.00
59859;BME280;45734;53.648;9.566;2024-01-16T11:26:34;54641.75;;;-145.06;100.00
59859;BME280;45734;53.648;9.566;2024-01-16T11:31:36;54645.81;;;-145.06;100.00
59859;BME280;45734;53.648;9.566;2024-01-16T11:41:55;54619.47;;;-145.06;100.00
59859;BME280;45734;53.648;9.566;2024-01-16T11:47:03;54587.06;;;-145.06;100.00
59859;BME280;45734;53.648;9.566;2024-01-16T11:52:03;54552.66;;;-145.06;100.00
59859;BME280;45734;53.648;9.566;2024-01-16T11:57:43;54558.72;;;-145.06;100.00
59859;BME280;45734;53.648;9.566;2024-01-16T12:02:55;54611.38;;;-145.06;100.00
59859;BME280;45734;53.648;9.566;2024-01-16T12:07:56;54599.22;;;-145.06;100.00
59859;BME280;45734;53.648;9.566;2024-01-16T12:12:58;54613.41;;;-145.06;100.00
59859;BME280;45734;53.648;9.566;2024-01-16T12:18:00;54591.13;;;-145.06;100.00
59859;BME280;45734;53.648;9.566;2024-01-16T12:23:06;54601.25;;;-145.06;100.00
59859;BME280;45734;53.648;9.566;2024-01-16T12:28:08;54611.38;;;-145.06;100.00
59859;BME280;45734;53.648;9.566;2024-01-16T12:33:12;54621.50;;;-145.06;100.00
59859;BME280;45734;53.648;9.566;2024-01-16T12:38:13;54615.44;;;-145.06;100.00
59859;BME280;45734;53.648;9.566;2024-01-16T12:43:16;54637.72;;;-145.06;100.00
59859;BME280;45734;53.648;9.566;2024-01-16T12:48:22;54613.41;;;-145.06;100.00
59859;BME280;45734;53.648;9.566;2024-01-16T12:53:23;54676.19;;;-145.06;100.00
59859;BME280;45734;53.648;9.566;2024-01-16T12:58:24;54688.34;;;-145.06;100.00
59859;BME280;45734;53.648;9.566;2024-01-16T13:03:26;54710.63;;;-145.06;100.00
59859;BME280;45734;53.648;9.566;2024-01-16T13:08:27;54714.69;;;-145.06;100.00
59859;BME280;45734;53.648;9.566;2024-01-16T13:13:27;54730.88;;;-145.06;100.00
59859;BME280;45734;53.648;9.566;2024-01-16T13:18:29;54714.69;;;-145.06;100.00
59859;BME280;45734;53.648;9.566;2024-01-16T13:23:30;54710.63;;;-145.06;100.00
59859;BME280;45734;53.648;9.566;2024-01-16T13:28:30;54749.13;;;-145.06;100.00
59859;BME280;45734;53.648;9.566;2024-01-16T13:33:31;54763.31;;;-145.06;100.00
59859;BME280;45734;53.648;9.566;2024-01-16T13:38:32;54747.09;;;-145.06;100.00
59859;BME280;45734;53.648;9.566;2024-01-16T13:43:32;54763.31;;;-145.06;100.00
59859;BME280;45734;53.648;9.566;2024-01-16T13:48:32;54743.03;;;-145.06;100.00
59859;BME280;45734;53.648;9.566;2024-01-16T13:53:32;54769.38;;;-145.06;100.00
59859;BME280;45734;53.648;9.566;2024-01-16T13:58:34;54785.59;;;-145.06;100.00
59859;BME280;45734;53.648;9.566;2024-01-16T14:03:35;54773.44;;;-145.06;100.00
59859;BME280;45734;53.648;9.566;2024-01-16T14:08:35;54773.44;;;-145.06;100.00
59859;BME280;45734;53.648;9.566;2024-01-16T14:13:35;54805.84;;;-145.06;100.00
59859;BME280;45734;53.648;9.566;2024-01-16T14:18:37;54759.25;;;-145.06;100.00
59859;BME280;45734;53.648;9.566;2024-01-16T14:23:37;54787.59;;;-145.06;100.00
59859;BME280;45734;53.648;9.566;2024-01-16T14:28:38;54807.88;;;-145.06;100.00
59859;BME280;45734;53.648;9.566;2024-01-16T14:33:38;54783.56;;;-145.06;100.00
59859;BME280;45734;53.648;9.566;2024-01-16T14:38:39;54793.69;;;-145.06;100.00
59859;BME280;45734;53.648;9.566;2024-01-16T14:43:39;54787.59;;;-145.06;100.00
59859;BME280;45734;53.648;9.566;2024-01-16T14:48:45;54815.97;;;-145.06;100.00
59859;BME280;45734;53.648;9.566;2024-01-16T14:53:46;54832.16;;;-145.06;100.00
59859;BME280;45734;53.648;9.566;2024-01-16T14:58:46;54797.72;;;-145.06;100.00
59859;BME280;45734;53.648;9.566;2024-01-16T15:03:46;54834.19;;;-145.06;100.00
59859;BME280;45734;53.648;9.566;2024-01-16T15:08:48;54824.06;;;-145.06;100.00
59859;BME280;45734;53.648;9.566;2024-01-16T15:13:48;54813.94;;;-145.06;100.00
59859;BME280;45734;53.648;9.566;2024-01-16T15:18:49;54815.97;;;-145.06;100.00
59859;BME280;45734;53.648;9.566;2024-01-16T15:23:49;54820.00;;;-145.06;100.00
59859;BME280;45734;53.648;9.566;2024-01-16T15:28:50;54846.34;;;-145.06;100.00
59859;BME280;45734;53.648;9.566;2024-01-16T15:33:50;54836.22;;;-145.06;100.00
59859;BME280;45734;53.648;9.566;2024-01-16T15:38:50;54852.44;;;-145.06;100.00
59859;BME280;45734;53.648;9.566;2024-01-16T15:43:50;54878.75;;;-145.06;100.00
59859;BME280;45734;53.648;9.566;2024-01-16T15:48:51;54886.88;;;-145.06;100.00
59859;BME280;45734;53.648;9.566;2024-01-16T15:53:51;54917.25;;;-145.06;100.00
59859;BME280;45734;53.648;9.566;2024-01-16T15:58:51;54935.47;;;-145.06;100.00
59859;BME280;45734;53.648;9.566;2024-01-16T16:03:52;54919.28;;;-145.06;100.00
59859;BME280;45734;53.648;9.566;2024-01-16T16:08:52;54982.06;;;-145.06;100.00
59859;BME280;45734;53.648;9.566;2024-01-16T16:13:53;54941.56;;;-145.06;100.00
59859;BME280;45734;53.648;9.566;2024-01-16T16:18:54;54943.59;;;-145.06;100.00
59859;BME280;45734;53.648;9.566;2024-01-16T16:23:54;54931.44;;;-145.06;100.00
59859;BME280;45734;53.648;9.566;2024-01-16T16:29:00;54925.34;;;-145.06;100.00
59859;BME280;45734;53.648;9.566;2024-01-16T16:34:04;54945.59;;;-145.06;100.00
59859;BME280;45734;53.648;9.566;2024-01-16T16:39:05;54953.72;;;-145.06;100.00
59859;BME280;45734;53.648;9.566;2024-01-16T16:44:08;54909.16;;;-145.06;100.00
59859;BME280;45734;53.648;9.566;2024-01-16T16:49:08;54943.59;;;-145.06;100.00
59859;BME280;45734;53.648;9.566;2024-01-16T16:54:10;54935.47;;;-145.06;100.00
59859;BME280;45734;53.648;9.566;2024-01-16T16:59:10;54947.63;;;-145.06;100.00
59859;BME280;45734;53.648;9.566;2024-01-16T17:04:11;54941.56;;;-145.06;100.00
59859;BME280;45734;53.648;9.566;2024-01-16T17:09:11;54937.50;;;-145.06;100.00
59859;BME280;45734;53.648;9.566;2024-01-16T17:14:11;54998.28;;;-145.06;100.00
59859;BME280;45734;53.648;9.566;2024-01-16T17:19:12;54949.66;;;-145.06;100.00
59859;BME280;45734;53.648;9.566;2024-01-16T17:24:12;54965.88;;;-145.06;100.00
59859;BME280;45734;53.648;9.566;2024-01-16T17:29:12;54941.56;;;-145.06;100.00
59859;BME280;45734;53.648;9.566;2024-01-16T17:34:13;54969.91;;;-145.06;100.00
59859;BME280;45734;53.648;9.566;2024-01-16T17:39:13;54955.72;;;-145.06;100.00
59859;BME280;45734;53.648;9.566;2024-01-16T17:44:15;54994.22;;;-145.06;100.00
59859;BME280;45734;53.648;9.566;2024-01-16T17:49:15;54941.56;;;-145.06;100.00
59859;BME280;45734;53.648;9.566;2024-01-16T17:54:15;54945.59;;;-145.06;100.00
59859;BME280;45734;53.648;9.566;2024-01-16T17:59:16;54949.66;;;-145.06;100.00
59859;BME280;45734;53.648;9.566;2024-01-16T18:04:18;54911.16;;;-145.06;100.00
59859;BME280;45734;53.648;9.566;2024-01-16T18:09:18;54959.78;;;-145.06;100.00
59859;BME280;45734;53.648;9.566;2024-01-16T18:14:19;54931.44;;;-145.06;100.00
59859;BME280;45734;53.648;9.566;2024-01-16T18:19:20;54939.53;;;-145.06;100.00
59859;BME280;45734;53.648;9.566;2024-01-16T18:24:24;54941.56;;;-145.06;100.00
59859;BME280;45734;53.648;9.566;2024-01-16T18:29:24;54927.38;;;-145.06;100.00
59859;BME280;45734;53.648;9.566;2024-01-16T18:34:25;54953.72;;;-145.06;100.00
59859;BME280;45734;53.648;9.566;2024-01-16T18:39:25;54903.06;;;-145.06;100.00
59859;BME280;45734;53.648;9.566;2024-01-16T18:44:25;54903.06;;;-145.06;100.00
59859;BME280;45734;53.648;9.566;2024-01-16T18:49:26;54888.88;;;-145.06;100.00
59859;BME280;45734;53.648;9.566;2024-01-16T18:54:26;54931.44;;;-145.06;100.00
59859;BME280;45734;53.648;9.566;2024-01-16T18:59:27;54892.94;;;-145.06;100.00
59859;BME280;45734;53.648;9.566;2024-01-16T19:04:28;54874.72;;;-145.06;100.00
59859;BME280;45734;53.648;9.566;2024-01-16T19:09:29;54913.19;;;-145.06;100.00
59859;BME280;45734;53.648;9.566;2024-01-16T19:14:36;54876.72;;;-145.06;100.00
59859;BME280;45734;53.648;9.566;2024-01-16T19:19:37;54909.16;;;-145.06;100.00
59859;BME280;45734;53.648;9.566;2024-01-16T19:24:37;54929.41;;;-145.06;100.00
59859;BME280;45734;53.648;9.566;2024-01-16T19:29:38;54905.09;;;-145.06;100.00
59859;BME280;45734;53.648;9.566;2024-01-16T19:34:38;54899.00;;;-145.06;100.00
59859;BME280;45734;53.648;9.566;2024-01-16T19:39:38;54913.19;;;-145.06;100.00
59859;BME280;45734;53.648;9.566;2024-01-16T19:44:46;54905.09;;;-145.06;100.00
59859;BME280;45734;53.648;9.566;2024-01-16T19:49:46;54917.25;;;-145.06;100.00
59859;BME280;45734;53.648;9.566;2024-01-16T19:54:47;54929.41;;;-145.06;100.00
59859;BME280;45734;53.648;9.566;2024-01-16T19:59:47;54919.28;;;-145.06;100.00
59859;BME280;45734;53.648;9.566;2024-01-16T20:04:47;54915.22;;;-145.06;100.00
59859;BME280;45734;53.648;9.566;2024-01-16T20:09:49;54939.53;;;-145.06;100.00
59859;BME280;45734;53.648;9.566;2024-01-16T20:14:49;54927.38;;;-145.06;100.00
59859;BME280;45734;53.648;9.566;2024-01-16T20:19:49;54911.16;;;-145.06;100.00
59859;BME280;45734;53.648;9.566;2024-01-16T20:24:49;54925.34;;;-145.06;100.00
59859;BME280;45734;53.648;9.566;2024-01-16T20:29:54;54917.25;;;-145.06;100.00
59859;BME280;45734;53.648;9.566;2024-01-16T20:34:54;54909.16;;;-145.06;100.00
59859;BME280;45734;53.648;9.566;2024-01-16T20:39:55;54907.13;;;-145.06;100.00
59859;BME280;45734;53.648;9.566;2024-01-16T20:44:55;54907.13;;;-145.06;100.00
59859;BME280;45734;53.648;9.566;2024-01-16T20:49:55;54917.25;;;-145.06;100.00
59859;BME280;45734;53.648;9.566;2024-01-16T20:54:55;54933.44;;;-145.06;100.00
59859;BME280;45734;53.648;9.566;2024-01-16T20:59:56;54937.50;;;-145.06;100.00
59859;BME280;45734;53.648;9.566;2024-01-16T21:04:56;54925.34;;;-145.06;100.00
59859;BME280;45734;53.648;9.566;2024-01-16T21:09:56;54955.72;;;-145.06;100.00
59859;BME280;45734;53.648;9.566;2024-01-16T21:14:56;54963.84;;;-145.06;100.00
59859;BME280;45734;53.648;9.566;2024-01-16T21:19:57;54929.41;;;-145.06;100.00
59859;BME280;45734;53.648;9.566;2024-01-16T21:24:57;54945.59;;;-145.06;100.00
59859;BME280;45734;53.648;9.566;2024-01-16T21:29:57;54961.81;;;-145.06;100.00
59859;BME280;45734;53.648;9.566;2024-01-16T21:34:58;54978.03;;;-145.06;100.00
59859;BME280;45734;53.648;9.566;2024-01-16T21:39:58;54969.91;;;-145.06;100.00
59859;BME280;45734;53.648;9.566;2024-01-16T21:44:58;55000.31;;;-145.06;100.00
59859;BME280;45734;53.648;9.566;2024-01-16T21:49:59;54963.84;;;-145.06;100.00
59859;BME280;45734;53.648;9.566;2024-01-16T21:54:59;54953.72;;;-145.06;100.00
59859;BME280;45734;53.648;9.566;2024-01-16T22:00:00;54965.88;;;-145.06;100.00
59859;BME280;45734;53.648;9.566;2024-01-16T22:05:02;54967.88;;;-145.06;100.00
59859;BME280;45734;53.648;9.566;2024-01-16T22:10:04;54978.03;;;-145.06;100.00
59859;BME280;45734;53.648;9.566;2024-01-16T22:15:07;55004.34;;;-145.06;100.00
59859;BME280;45734;53.648;9.566;2024-01-16T22:20:07;54941.56;;;-145.06;100.00
59859;BME280;45734;53.648;9.566;2024-01-16T22:25:10;54980.03;;;-145.06;100.00
59859;BME280;45734;53.648;9.566;2024-01-16T22:30:11;54957.75;;;-145.06;100.00
59859;BME280;45734;53.648;9.566;2024-01-16T22:35:12;54963.84;;;-145.06;100.00
59859;BME280;45734;53.648;9.566;2024-01-16T22:40:12;54980.03;;;-145.06;100.00
59859;BME280;45734;53.648;9.566;2024-01-16T22:45:13;54980.03;;;-145.06;100.00
59859;BME280;45734;53.648;9.566;2024-01-16T22:50:14;54969.91;;;-145.06;100.00
59859;BME280;45734;53.648;9.566;2024-01-16T22:55:14;54939.53;;;-145.06;100.00
59859;BME280;45734;53.648;9.566;2024-01-16T23:00:15;54959.78;;;-145.06;100.00
59859;BME280;45734;53.648;9.566;2024-01-16T23:05:21;54973.97;;;-145.06;100.00
59859;BME280;45734;53.648;9.566;2024-01-16T23:10:23;54945.59;;;-145.06;100.00
59859;BME280;45734;53.648;9.566;2024-01-16T23:15:25;54953.72;;;-145.06;100.00
59859;BME280;45734;53.648;9.566;2024-01-16T23:20:25;54965.88;;;-145.06;100.00
59859;BME280;45734;53.648;9.566;2024-01-16T23:25:27;54971.94;;;-145.06;100.00
59859;BME280;45734;53.648;9.566;2024-01-16T23:30:27;54951.69;;;-145.06;100.00
59859;BME280;45734;53.648;9.566;2024-01-16T23:35:30;54941.56;;;-145.06;100.00
59859;BME280;45734;53.648;9.566;2024-01-16T23:40:30;54963.84;;;-145.06;100.00
59859;BME280;45734;53.648;9.566;2024-01-16T23:45:31;54971.94;;;-145.06;100.00
59859;BME280;45734;53.648;9.566;2024-01-16T23:50:33;54961.81;;;-145.06;100.00
59859;BME280;45734;53.648;9.566;2024-01-16T23:55:34;54945.59;;;-145.06;100.00
